TimeCST,TemperatureF,Dew PointF,Humidity,Sea Level PressureIn,VisibilityMPH,Wind Direction,Wind SpeedMPH,Gust SpeedMPH,PrecipitationIn,Events,Conditions,WindDirDegrees,DateUTC
12:55 AM,68.5,68.5,100,30.20,10.0,SE,5.8,-,N/A,,Clear,140,2011-11-21 06:55:00
1:55 AM,69.4,69.4,100,30.18,10.0,SSE,8.1,-,N/A,,Partly Cloudy,150,2011-11-21 07:55:00
2:32 AM,69.8,69.8,100,30.18,10.0,Variable,4.6,-,N/A,,Partly Cloudy,0,2011-11-21 08:32:00
2:41 AM,69.8,69.8,100,30.18,10.0,ESE,4.6,-,N/A,,Mostly Cloudy,110,2011-11-21 08:41:00
2:55 AM,69.3,69.3,100,30.19,2.5,ESE,4.6,-,N/A,,Mostly Cloudy,110,2011-11-21 08:55:00
2:56 AM,69.8,69.8,100,30.19,2.0,ESE,5.8,-,N/A,,Overcast,110,2011-11-21 08:56:00
2:58 AM,69.8,69.8,100,30.19,1.8,East,4.6,-,N/A,,Overcast,100,2011-11-21 08:58:00
2:59 AM,69.8,69.8,100,30.19,1.5,Variable,4.6,-,N/A,,Overcast,0,2011-11-21 08:59:00
3:03 AM,69.8,69.8,100,30.19,1.2,East,3.5,-,N/A,,Overcast,80,2011-11-21 09:03:00
3:06 AM,69.8,69.8,100,30.19,1.0,East,4.6,-,N/A,,Mist,80,2011-11-21 09:06:00
3:08 AM,69.8,69.8,100,30.19,1.0,ENE,3.5,-,N/A,,Mist,70,2011-11-21 09:08:00
3:09 AM,69.8,69.8,100,30.19,0.8,East,3.5,-,N/A,,Mist,80,2011-11-21 09:09:00
3:13 AM,68.0,68.0,100,30.19,0.8,ENE,4.6,-,N/A,,Mist,70,2011-11-21 09:13:00
3:15 AM,68.0,68.0,100,30.19,0.8,ENE,4.6,-,N/A,,Mist,70,2011-11-21 09:15:00
3:25 AM,68.0,68.0,100,30.19,0.5,ENE,3.5,-,N/A,Fog,Fog,60,2011-11-21 09:25:00
3:26 AM,68.0,68.0,100,30.19,0.5,ENE,3.5,-,N/A,Fog,Fog,70,2011-11-21 09:26:00
3:27 AM,68.0,68.0,100,30.19,0.5,ENE,3.5,-,N/A,Fog,Fog,70,2011-11-21 09:27:00
3:28 AM,68.0,68.0,100,30.19,0.5,ENE,3.5,-,N/A,Fog,Fog,70,2011-11-21 09:28:00
3:30 AM,68.0,68.0,100,30.19,0.5,ENE,3.5,-,N/A,Fog,Fog,70,2011-11-21 09:30:00
3:32 AM,68.0,68.0,100,30.19,0.5,ENE,4.6,-,N/A,Fog,Fog,70,2011-11-21 09:32:00
3:38 AM,68.0,68.0,100,30.19,0.5,NNE,4.6,-,N/A,Fog,Fog,30,2011-11-21 09:38:00
3:39 AM,68.0,68.0,100,30.19,0.5,NNE,4.6,-,N/A,Fog,Fog,30,2011-11-21 09:39:00
3:41 AM,68.0,68.0,100,30.19,0.5,NNE,4.6,-,N/A,Fog,Fog,20,2011-11-21 09:41:00
3:42 AM,68.0,68.0,100,30.19,0.5,NNE,4.6,-,N/A,Fog,Fog,30,2011-11-21 09:42:00
3:45 AM,68.0,68.0,100,30.20,0.8,North,3.5,-,N/A,,Mist,10,2011-11-21 09:45:00
3:49 AM,68.0,68.0,100,30.20,1.0,NNE,3.5,-,N/A,,Mist,20,2011-11-21 09:49:00
3:52 AM,68.0,68.0,100,30.20,1.2,North,3.5,-,N/A,,Overcast,10,2011-11-21 09:52:00
3:55 AM,67.6,67.6,100,30.20,1.2,North,3.5,-,N/A,,Overcast,10,2011-11-21 09:55:00
3:56 AM,68.0,68.0,100,30.20,1.5,North,3.5,-,N/A,,Overcast,10,2011-11-21 09:56:00
3:57 AM,68.0,68.0,100,30.20,1.5,North,3.5,-,N/A,,Overcast,10,2011-11-21 09:57:00
3:59 AM,68.0,68.0,100,30.20,1.8,North,3.5,-,N/A,,Overcast,10,2011-11-21 09:59:00
4:04 AM,68.0,68.0,100,30.20,2.0,Calm,Calm,-,N/A,,Overcast,0,2011-11-21 10:04:00
4:28 AM,68.0,68.0,100,30.20,2.5,NNE,4.6,-,N/A,,Overcast,20,2011-11-21 10:28:00
4:32 AM,68.0,68.0,100,30.20,2.0,NNE,4.6,-,N/A,,Overcast,30,2011-11-21 10:32:00
4:39 AM,68.0,68.0,100,30.20,1.8,ENE,3.5,-,N/A,,Overcast,60,2011-11-21 10:39:00
4:43 AM,68.0,68.0,100,30.20,1.5,East,3.5,-,N/A,,Overcast,80,2011-11-21 10:43:00
4:47 AM,68.0,68.0,100,30.20,1.2,East,3.5,-,N/A,,Overcast,90,2011-11-21 10:47:00
4:51 AM,68.0,68.0,100,30.20,1.0,Calm,Calm,-,N/A,,Mist,0,2011-11-21 10:51:00
4:55 AM,67.8,67.8,100,30.20,0.8,Calm,Calm,-,N/A,,Mist,0,2011-11-21 10:55:00
4:59 AM,68.0,68.0,100,30.20,0.5,Calm,Calm,-,N/A,Fog,Fog,0,2011-11-21 10:59:00
5:00 AM,68.0,68.0,100,30.20,0.5,Calm,Calm,-,N/A,Fog,Fog,0,2011-11-21 11:00:00
5:01 AM,68.0,68.0,100,30.20,0.5,Calm,Calm,-,N/A,Fog,Fog,0,2011-11-21 11:01:00
5:02 AM,68.0,68.0,100,30.20,0.5,East,3.5,-,N/A,Fog,Fog,90,2011-11-21 11:02:00
5:03 AM,68.0,68.0,100,30.20,0.5,East,3.5,-,N/A,Fog,Fog,90,2011-11-21 11:03:00
5:04 AM,68.0,68.0,100,30.20,0.5,East,3.5,-,N/A,Fog,Fog,90,2011-11-21 11:04:00
5:46 AM,68.0,68.0,100,30.22,0.5,Calm,Calm,-,N/A,Fog,Fog,0,2011-11-21 11:46:00
5:55 AM,68.2,68.2,100,30.22,0.5,NNE,3.5,-,N/A,Fog,Fog,30,2011-11-21 11:55:00
6:01 AM,68.0,68.0,100,30.22,0.5,NE,3.5,-,N/A,Fog,Fog,50,2011-11-21 12:01:00
6:15 AM,68.0,68.0,100,30.22,0.5,East,4.6,-,N/A,Fog,Fog,90,2011-11-21 12:15:00
6:17 AM,68.0,68.0,100,30.22,0.5,East,4.6,-,N/A,Fog,Fog,90,2011-11-21 12:17:00
6:25 AM,68.0,68.0,100,30.22,0.2,ENE,4.6,-,N/A,Fog,Fog,70,2011-11-21 12:25:00
6:29 AM,68.0,68.0,100,30.22,0.2,ENE,4.6,-,N/A,Fog,Fog,70,2011-11-21 12:29:00
6:33 AM,68.0,68.0,100,30.22,0.2,ENE,4.6,-,N/A,Fog,Fog,70,2011-11-21 12:33:00
6:37 AM,68.0,68.0,100,30.22,0.2,East,4.6,-,N/A,Fog,Fog,80,2011-11-21 12:37:00
6:50 AM,68.0,68.0,100,30.22,0.2,East,4.6,-,N/A,Fog,Fog,90,2011-11-21 12:50:00
6:55 AM,68.5,68.5,100,30.22,0.2,East,4.6,-,N/A,Fog,Fog,100,2011-11-21 12:55:00
7:14 AM,68.0,68.0,100,30.22,0.2,East,5.8,-,N/A,Fog,Fog,100,2011-11-21 13:14:00
7:15 AM,68.0,68.0,100,30.22,0.2,ESE,5.8,-,N/A,Fog,Fog,110,2011-11-21 13:15:00
7:55 AM,68.9,68.9,100,30.25,0.2,ENE,5.8,-,N/A,Fog,Fog,70,2011-11-21 13:55:00
8:10 AM,69.8,69.8,100,30.25,0.5,ENE,5.8,-,N/A,Fog,Fog,70,2011-11-21 14:10:00
8:15 AM,69.8,69.8,100,30.25,0.8,ENE,4.6,-,N/A,,Mist,70,2011-11-21 14:15:00
8:18 AM,69.8,69.8,100,30.25,1.5,ENE,4.6,-,N/A,,Overcast,70,2011-11-21 14:18:00
8:19 AM,69.8,69.8,100,30.26,1.8,ENE,4.6,-,N/A,,Overcast,70,2011-11-21 14:19:00
8:21 AM,69.8,69.8,100,30.26,2.5,NE,3.5,-,N/A,,Overcast,50,2011-11-21 14:21:00
8:34 AM,69.8,69.8,100,30.26,3.0,ENE,4.6,-,N/A,,Mostly Cloudy,60,2011-11-21 14:34:00
8:40 AM,69.8,69.8,100,30.26,5.0,East,4.6,-,N/A,,Overcast,80,2011-11-21 14:40:00
8:55 AM,70.9,70.9,100,30.26,7.0,East,5.8,-,N/A,,Overcast,80,2011-11-21 14:55:00
9:29 AM,69.8,69.8,100,30.26,9.0,East,4.6,-,N/A,,Mostly Cloudy,80,2011-11-21 15:29:00
9:32 AM,71.6,71.6,100,30.26,8.0,East,5.8,-,N/A,,Overcast,80,2011-11-21 15:32:00
9:35 AM,71.6,71.6,100,30.26,7.0,East,5.8,-,N/A,Rain,Light Rain,80,2011-11-21 15:35:00
9:37 AM,71.6,71.6,100,30.26,6.0,East,5.8,-,N/A,Rain,Light Rain,80,2011-11-21 15:37:00
9:39 AM,71.6,71.6,100,30.26,4.0,East,5.8,-,N/A,Rain,Light Rain,80,2011-11-21 15:39:00
9:46 AM,71.6,71.6,100,30.26,4.0,East,5.8,-,N/A,Rain,Light Rain,80,2011-11-21 15:46:00
9:52 AM,71.6,71.6,100,30.26,9.0,East,5.8,-,N/A,,Mostly Cloudy,80,2011-11-21 15:52:00
9:53 AM,71.6,71.6,100,30.26,9.0,East,4.6,-,N/A,,Mostly Cloudy,90,2011-11-21 15:53:00
9:55 AM,71.8,71.8,100,30.26,10.0,East,3.5,-,0.01,,Mostly Cloudy,100,2011-11-21 15:55:00
9:57 AM,71.6,71.6,100,30.26,10.0,East,5.8,-,N/A,,Mostly Cloudy,100,2011-11-21 15:57:00
10:11 AM,73.4,73.4,100,30.26,10.0,East,4.6,-,N/A,,Mostly Cloudy,80,2011-11-21 16:11:00
10:27 AM,73.4,73.4,100,30.25,10.0,East,4.6,-,N/A,,Mostly Cloudy,80,2011-11-21 16:27:00
10:47 AM,75.2,75.2,100,30.24,10.0,SE,8.1,-,N/A,,Mostly Cloudy,140,2011-11-21 16:47:00
10:55 AM,75.4,75.4,100,30.23,10.0,SE,10.4,-,N/A,,Scattered Clouds,130,2011-11-21 16:55:00
11:55 AM,77.9,72.1,82,30.20,10.0,SE,9.2,-,N/A,,Partly Cloudy,140,2011-11-21 17:55:00
12:55 PM,77.4,71.2,81,30.17,10.0,SE,13.8,-,N/A,,Clear,130,2011-11-21 18:55:00
1:55 PM,78.1,71.1,79,30.15,10.0,SE,10.4,-,N/A,,Clear,140,2011-11-21 19:55:00
2:55 PM,77.0,71.2,82,30.13,10.0,SE,9.2,-,N/A,,Clear,130,2011-11-21 20:55:00
3:55 PM,74.3,71.6,91,30.13,10.0,ESE,6.9,-,N/A,,Mostly Cloudy,120,2011-11-21 21:55:00
4:55 PM,72.9,72.7,99,30.12,10.0,ESE,9.2,-,N/A,,Scattered Clouds,120,2011-11-21 22:55:00
5:55 PM,71.8,71.8,100,30.12,10.0,ESE,8.1,-,N/A,,Scattered Clouds,110,2011-11-21 23:55:00
6:10 PM,71.6,71.6,100,30.11,10.0,ESE,9.2,-,N/A,,Overcast,120,2011-11-22 00:10:00
6:55 PM,71.2,71.2,100,30.12,10.0,SE,10.4,-,N/A,,Mostly Cloudy,130,2011-11-22 00:55:00
7:26 PM,71.6,71.6,100,30.12,10.0,SE,11.5,-,N/A,,Mostly Cloudy,140,2011-11-22 01:26:00
7:55 PM,70.3,70.3,100,30.12,5.0,SE,10.4,-,N/A,,Overcast,130,2011-11-22 01:55:00
8:31 PM,69.8,69.8,100,30.12,10.0,SE,9.2,-,N/A,,Overcast,130,2011-11-22 02:31:00
8:55 PM,70.5,70.5,100,30.11,5.0,SE,10.4,-,N/A,,Overcast,130,2011-11-22 02:55:00
9:16 PM,69.8,69.8,100,30.10,5.0,ESE,9.2,-,N/A,,Overcast,120,2011-11-22 03:16:00
9:41 PM,69.8,69.8,100,30.11,2.5,SE,8.1,-,N/A,,Overcast,130,2011-11-22 03:41:00
9:55 PM,69.8,69.8,100,30.11,3.0,ESE,8.1,-,N/A,,Overcast,120,2011-11-22 03:55:00
10:42 PM,69.8,69.8,100,30.11,10.0,SE,10.4,-,N/A,,Overcast,130,2011-11-22 04:42:00
10:55 PM,70.0,70.0,100,30.11,10.0,ESE,8.1,-,N/A,,Overcast,120,2011-11-22 04:55:00
11:00 PM,69.8,69.8,100,30.10,10.0,ESE,8.1,-,N/A,,Overcast,120,2011-11-22 05:00:00
11:02 PM,69.8,69.8,100,30.10,10.0,SE,8.1,-,N/A,,Overcast,130,2011-11-22 05:02:00
11:19 PM,69.8,69.8,100,30.09,10.0,SE,12.7,18.4,N/A,,Scattered Clouds,140,2011-11-22 05:19:00
11:55 PM,70.5,70.5,100,30.07,10.0,SE,11.5,-,N/A,,Clear,140,2011-11-22 05:55:00